createdAt,value
2023-03-24T00:01:11.494Z,16.65
2023-03-24T00:06:13.292Z,14.15
2023-03-24T00:11:11.845Z,15.30
2023-03-24T00:16:12.050Z,13.95
2023-03-24T00:21:10.982Z,14.57
2023-03-24T00:26:11.832Z,12.23
2023-03-24T00:31:10.397Z,12.57
2023-03-24T00:36:11.397Z,13.45
2023-03-24T00:41:10.015Z,11.98
2023-03-24T00:46:10.848Z,14.32
2023-03-24T00:51:10.260Z,12.73
2023-03-24T00:56:08.525Z,13.43
2023-03-24T01:01:06.529Z,13.60
2023-03-24T01:06:04.649Z,13.85
2023-03-24T01:11:04.146Z,12.93
2023-03-24T01:16:01.295Z,12.20
2023-03-24T01:20:58.712Z,11.82
2023-03-24T01:25:55.523Z,13.45
2023-03-24T01:30:54.083Z,12.85
2023-03-24T01:35:51.054Z,11.77
2023-03-24T01:40:48.217Z,12.70
2023-03-24T01:46:13.031Z,13.05
2023-03-24T01:51:14.997Z,13.10
2023-03-24T01:56:13.157Z,13.43
2023-03-24T02:01:13.889Z,12.50
2023-03-24T02:06:34.699Z,15.07
2023-03-24T02:11:35.566Z,13.85
2023-03-24T02:16:49.388Z,13.43
2023-03-24T02:22:28.664Z,14.77
2023-03-24T02:27:45.530Z,16.38
2023-03-24T02:33:06.470Z,15.85
2023-03-24T02:38:24.497Z,19.58
2023-03-24T02:43:33.223Z,17.92
2023-03-24T02:48:37.202Z,18.17
2023-03-24T02:53:43.231Z,17.77
2023-03-24T02:58:58.161Z,15.18
2023-03-24T03:03:59.163Z,14.68
2023-03-24T03:08:59.828Z,14.00
2023-03-24T03:14:02.213Z,16.02
2023-03-24T03:19:02.986Z,14.55
2023-03-24T03:24:06.236Z,13.75
2023-03-24T03:29:11.416Z,13.43
2023-03-24T03:34:17.271Z,14.13
2023-03-24T03:39:19.238Z,12.73
2023-03-24T03:44:17.149Z,13.13
2023-03-24T03:49:14.315Z,11.77
2023-03-24T03:54:14.194Z,11.52
2023-03-24T03:59:24.402Z,12.10
2023-03-24T04:04:53.255Z,11.35
2023-03-24T04:10:21.049Z,11.50
2023-03-24T04:15:43.480Z,12.05
2023-03-24T04:21:15.497Z,13.07
2023-03-24T04:26:25.646Z,12.48
2023-03-24T04:31:29.435Z,12.00
2023-03-24T04:36:33.863Z,11.18
2023-03-24T04:41:52.556Z,12.38
2023-03-24T04:47:02.065Z,13.60
2023-03-24T04:51:59.387Z,14.73
2023-03-24T04:57:01.106Z,18.25
2023-03-24T05:02:00.943Z,22.65
2023-03-24T05:07:01.104Z,18.65
2023-03-24T05:11:59.276Z,16.85
2023-03-24T05:17:01.458Z,14.70
2023-03-24T05:21:59.214Z,17.88
2023-03-24T05:26:59.578Z,17.42
2023-03-24T05:32:08.805Z,16.45
2023-03-24T05:37:13.701Z,17.40
2023-03-24T05:42:15.674Z,17.02
2023-03-24T05:47:21.364Z,17.15
2023-03-24T05:52:22.064Z,14.10
2023-03-24T05:57:21.147Z,12.48
2023-03-24T06:02:39.300Z,11.20
2023-03-24T06:07:51.897Z,9.30
2023-03-24T06:12:50.438Z,10.98
2023-03-24T06:17:49.552Z,10.27
2023-03-24T06:23:03.009Z,10.35
2023-03-24T06:28:13.697Z,10.52
2023-03-24T06:33:13.387Z,11.25
2023-03-24T06:38:13.808Z,9.98
2023-03-24T06:43:11.731Z,10.32
2023-03-24T06:48:11.975Z,9.57
2023-03-24T06:53:09.316Z,9.27
2023-03-24T06:58:08.174Z,10.75
2023-03-24T07:03:26.453Z,10.90
2023-03-24T07:08:46.384Z,9.30
2023-03-24T07:13:44.063Z,9.98
2023-03-24T07:18:41.581Z,11.10
2023-03-24T07:23:43.572Z,9.32
2023-03-24T07:28:44.557Z,10.70
2023-03-24T07:33:43.351Z,9.77
2023-03-24T07:38:40.346Z,10.35
2023-03-24T07:43:41.979Z,9.65
2023-03-24T07:49:01.281Z,10.05
2023-03-24T07:54:05.995Z,10.27
2023-03-24T07:59:09.877Z,9.20
2023-03-24T08:04:31.930Z,9.00
2023-03-24T08:09:51.958Z,10.68
2023-03-24T08:14:48.750Z,9.48
2023-03-24T08:19:59.113Z,8.90
2023-03-24T08:25:03.398Z,8.63
2023-03-24T08:30:00.434Z,8.20
2023-03-24T08:34:58.490Z,8.77
2023-03-24T08:40:00.207Z,9.80
2023-03-24T08:44:58.038Z,7.33
2023-03-24T08:50:12.217Z,6.93
2023-03-24T08:55:23.646Z,6.63
2023-03-24T09:00:22.291Z,6.45
2023-03-24T09:05:32.869Z,6.07
2023-03-24T09:10:34.153Z,5.93
2023-03-24T09:15:35.542Z,6.22
2023-03-24T09:20:33.461Z,7.00
2023-03-24T09:25:32.564Z,6.95
2023-03-24T09:30:30.992Z,6.88
2023-03-24T09:35:29.224Z,8.55
2023-03-24T09:40:29.299Z,8.63
2023-03-24T09:45:28.883Z,6.38
2023-03-24T09:50:28.869Z,7.85
2023-03-24T09:55:28.842Z,7.97
2023-03-24T10:00:28.790Z,7.15
2023-03-24T10:05:31.107Z,7.22
2023-03-24T10:10:35.089Z,7.05
2023-03-24T10:15:38.577Z,6.00
2023-03-24T10:20:44.090Z,6.20
2023-03-24T10:25:51.248Z,6.70
2023-03-24T10:30:50.370Z,6.43
2023-03-24T10:35:55.613Z,7.60
2023-03-24T10:40:54.511Z,7.00
2023-03-24T10:45:53.563Z,6.68
2023-03-24T10:50:51.535Z,6.40
2023-03-24T10:55:50.137Z,6.18
2023-03-24T11:00:48.968Z,5.07
2023-03-24T11:05:46.483Z,5.13
2023-03-24T11:10:46.633Z,5.72
2023-03-24T11:15:55.191Z,5.20
2023-03-24T11:21:35.091Z,4.60
2023-03-24T11:26:36.272Z,4.85
2023-03-24T11:31:40.182Z,4.30
2023-03-24T11:37:05.041Z,4.97
2023-03-24T11:42:06.222Z,4.93
2023-03-24T11:47:13.051Z,5.07
2023-03-24T11:52:20.056Z,6.20
2023-03-24T11:57:28.790Z,5.20
2023-03-24T12:02:48.017Z,5.10
2023-03-24T12:08:11.347Z,4.47
2023-03-24T12:13:22.182Z,4.70
2023-03-24T12:18:58.120Z,7.32
2023-03-24T12:23:58.726Z,5.00
2023-03-24T12:29:05.361Z,5.15
2023-03-24T12:34:15.481Z,5.25
2023-03-24T12:39:16.658Z,4.65
2023-03-24T12:44:50.725Z,5.05
2023-03-24T12:50:00.691Z,4.50
2023-03-24T12:55:04.022Z,4.25
2023-03-24T13:00:08.782Z,7.10
2023-03-24T13:05:18.641Z,5.32
2023-03-24T13:10:19.876Z,4.82
2023-03-24T13:15:21.014Z,4.90
2023-03-24T13:20:26.724Z,4.72
2023-03-24T13:25:33.147Z,4.47
2023-03-24T13:36:15.141Z,4.97
2023-03-24T13:41:23.501Z,5.32
2023-03-24T13:46:20.807Z,5.10
2023-03-24T13:51:27.961Z,5.95
2023-03-24T13:56:31.317Z,5.32
2023-03-24T14:01:34.296Z,5.22
2023-03-24T14:06:46.575Z,5.45
2023-03-24T14:11:48.959Z,4.97
2023-03-24T14:17:02.072Z,5.47
2023-03-24T14:22:11.340Z,5.38
2023-03-24T14:27:34.157Z,5.53
2023-03-24T14:32:38.656Z,5.40
2023-03-24T14:37:47.810Z,5.40
2023-03-24T14:43:05.514Z,4.70
2023-03-24T14:48:06.196Z,4.95
2023-03-24T14:53:04.309Z,5.35
2023-03-24T14:58:11.720Z,5.53
2023-03-24T15:03:18.920Z,5.78
2023-03-24T15:08:20.923Z,6.82
2023-03-24T15:13:41.182Z,4.75
2023-03-24T15:18:57.673Z,6.07
2023-03-24T15:24:00.486Z,5.45
2023-03-24T15:28:59.956Z,4.72
2023-03-24T15:34:08.493Z,5.28
2023-03-24T15:39:20.363Z,5.00
2023-03-24T15:44:20.871Z,6.47
2023-03-24T15:49:25.576Z,4.53
2023-03-24T15:54:25.729Z,4.47
2023-03-24T15:59:25.136Z,4.43
2023-03-24T16:04:24.965Z,4.60
2023-03-24T16:09:26.753Z,4.30
2023-03-24T16:14:26.099Z,10.32
2023-03-24T16:19:23.470Z,7.28
2023-03-24T16:24:20.650Z,7.85
2023-03-24T16:29:19.650Z,6.43
2023-03-24T16:34:18.121Z,7.38
2023-03-24T16:39:16.469Z,6.93
2023-03-24T16:44:13.965Z,11.93
2023-03-24T16:49:14.839Z,10.85
2023-03-24T16:54:11.850Z,8.38
2023-03-24T16:59:09.946Z,8.52
2023-03-24T17:04:09.160Z,11.68
2023-03-24T17:09:07.617Z,10.25
2023-03-24T17:14:07.894Z,9.52
2023-03-24T17:19:05.126Z,12.82
2023-03-24T17:24:03.189Z,13.50
2023-03-24T17:29:06.913Z,13.52
2023-03-24T17:34:15.199Z,11.23
2023-03-24T17:39:19.837Z,18.00
2023-03-24T17:44:17.875Z,17.75
2023-03-24T17:49:23.233Z,17.17
2023-03-24T17:54:33.318Z,19.15
2023-03-24T17:59:31.125Z,15.38
2023-03-24T18:04:28.605Z,17.80
2023-03-24T18:09:31.601Z,21.23
2023-03-24T18:14:31.408Z,20.25
2023-03-24T18:19:35.877Z,20.27
2023-03-24T18:24:54.163Z,16.37
2023-03-24T18:29:55.991Z,13.00
2023-03-24T18:35:05.366Z,9.10
2023-03-24T18:40:09.169Z,10.73
2023-03-24T18:45:08.304Z,8.85
2023-03-24T18:50:09.860Z,9.50
2023-03-24T18:55:20.343Z,10.00
2023-03-24T19:00:19.766Z,9.10
2023-03-24T19:05:18.932Z,10.60
2023-03-24T19:10:21.369Z,9.77
2023-03-24T19:15:25.109Z,12.00
2023-03-24T19:20:24.318Z,11.20
2023-03-24T19:25:24.329Z,10.90
2023-03-24T19:30:25.999Z,10.48
2023-03-24T19:35:23.207Z,10.05
2023-03-24T19:40:23.018Z,9.57
2023-03-24T19:45:20.788Z,8.90
2023-03-24T19:50:18.764Z,9.90
2023-03-24T19:55:16.137Z,8.13
2023-03-24T20:00:16.322Z,8.55
2023-03-24T20:05:14.087Z,8.68
2023-03-24T20:10:13.086Z,8.55
2023-03-24T20:15:10.840Z,8.85
2023-03-24T20:20:12.946Z,8.80
2023-03-24T20:25:12.030Z,9.20
2023-03-24T20:30:10.326Z,8.93
2023-03-24T20:35:12.291Z,9.30
2023-03-24T20:40:10.328Z,8.95
2023-03-24T20:45:10.537Z,8.38
2023-03-24T20:50:08.842Z,9.25
2023-03-24T20:55:08.310Z,8.98
2023-03-24T21:00:13.368Z,8.45
2023-03-24T21:05:11.406Z,8.45
2023-03-24T21:10:09.243Z,8.00
2023-03-24T21:15:07.691Z,7.47
2023-03-24T21:20:08.387Z,7.55
2023-03-24T21:25:07.006Z,7.68
2023-03-24T21:30:04.822Z,7.75
2023-03-24T21:35:01.760Z,6.78
2023-03-24T21:40:01.998Z,8.10
2023-03-24T21:44:59.643Z,7.00
2023-03-24T21:49:58.489Z,7.60
2023-03-24T21:54:57.554Z,6.28
2023-03-24T21:59:54.541Z,7.32
2023-03-24T22:04:52.209Z,7.65
2023-03-24T22:09:50.060Z,7.82
2023-03-24T22:14:47.169Z,6.75
2023-03-24T22:19:44.166Z,7.22
2023-03-24T22:24:41.687Z,7.63
2023-03-24T22:29:39.895Z,6.78
2023-03-24T22:34:36.722Z,7.38
2023-03-24T22:39:33.839Z,7.65
2023-03-24T22:44:31.410Z,6.38
2023-03-24T22:49:28.759Z,7.88
2023-03-24T22:54:26.311Z,7.35
2023-03-24T22:59:24.042Z,6.95
2023-03-24T23:04:21.584Z,7.35
2023-03-24T23:09:18.556Z,8.07
2023-03-24T23:14:17.757Z,8.05
2023-03-24T23:19:14.725Z,6.57
2023-03-24T23:24:12.363Z,7.65
2023-03-24T23:29:09.219Z,8.23
2023-03-24T23:34:06.951Z,7.53
2023-03-24T23:39:04.214Z,7.30
2023-03-24T23:44:01.956Z,7.00
2023-03-24T23:48:58.913Z,7.55
2023-03-24T23:53:55.752Z,7.45
2023-03-24T23:58:52.631Z,8.23
